sensor_id;sensor_type;location;lat;lon;timestamp;temperature;humidity
13231;DHT22;6681;53.254;10.398;2023-11-18T00:00:17;4.60;97.20
13231;DHT22;6681;53.254;10.398;2023-11-18T00:02:42;4.60;96.70
13231;DHT22;6681;53.254;10.398;2023-11-18T00:05:09;4.60;96.80
13231;DHT22;6681;53.254;10.398;2023-11-18T00:07:35;4.60;94.40
13231;DHT22;6681;53.254;10.398;2023-11-18T00:10:01;4.60;94.70
13231;DHT22;6681;53.254;10.398;2023-11-18T00:12:27;4.60;94.00
13231;DHT22;6681;53.254;10.398;2023-11-18T00:14:53;5.00;95.20
13231;DHT22;6681;53.254;10.398;2023-11-18T00:17:18;4.70;94.80
13231;DHT22;6681;53.254;10.398;2023-11-18T00:19:46;4.70;95.40
13231;DHT22;6681;53.254;10.398;2023-11-18T00:22:12;4.70;93.40
13231;DHT22;6681;53.254;10.398;2023-11-18T00:24:38;4.70;91.90
13231;DHT22;6681;53.254;10.398;2023-11-18T00:27:04;2.00;93.00
13231;DHT22;6681;53.254;10.398;2023-11-18T00:29:33;4.60;92.90
13231;DHT22;6681;53.254;10.398;2023-11-18T00:31:59;4.60;94.30
13231;DHT22;6681;53.254;10.398;2023-11-18T00:34:25;5.10;94.60
13231;DHT22;6681;53.254;10.398;2023-11-18T00:36:51;4.70;93.20
13231;DHT22;6681;53.254;10.398;2023-11-18T00:39:17;4.60;94.50
13231;DHT22;6681;53.254;10.398;2023-11-18T00:41:43;4.60;95.50
13231;DHT22;6681;53.254;10.398;2023-11-18T00:44:09;4.60;96.30
13231;DHT22;6681;53.254;10.398;2023-11-18T00:46:35;4.60;96.10
13231;DHT22;6681;53.254;10.398;2023-11-18T00:49:03;4.60;96.00
13231;DHT22;6681;53.254;10.398;2023-11-18T00:51:30;4.60;96.30
13231;DHT22;6681;53.254;10.398;2023-11-18T00:53:56;4.60;97.00
13231;DHT22;6681;53.254;10.398;2023-11-18T00:56:21;4.60;97.70
13231;DHT22;6681;53.254;10.398;2023-11-18T00:58:50;4.60;97.30
13231;DHT22;6681;53.254;10.398;2023-11-18T01:01:16;4.70;97.40
13231;DHT22;6681;53.254;10.398;2023-11-18T01:03:45;4.70;96.60
13231;DHT22;6681;53.254;10.398;2023-11-18T01:06:11;3.20;96.40
13231;DHT22;6681;53.254;10.398;2023-11-18T01:08:37;4.70;96.50
13231;DHT22;6681;53.254;10.398;2023-11-18T01:11:03;4.70;97.20
13231;DHT22;6681;53.254;10.398;2023-11-18T01:13:30;4.70;97.50
13231;DHT22;6681;53.254;10.398;2023-11-18T01:15:56;4.70;98.10
13231;DHT22;6681;53.254;10.398;2023-11-18T01:18:23;4.70;96.20
13231;DHT22;6681;53.254;10.398;2023-11-18T01:20:48;4.70;95.70
13231;DHT22;6681;53.254;10.398;2023-11-18T01:23:14;4.70;96.10
13231;DHT22;6681;53.254;10.398;2023-11-18T01:25:40;4.70;96.20
13231;DHT22;6681;53.254;10.398;2023-11-18T01:28:06;4.70;98.10
13231;DHT22;6681;53.254;10.398;2023-11-18T01:30:35;4.80;96.30
13231;DHT22;6681;53.254;10.398;2023-11-18T01:33:02;4.80;93.80
13231;DHT22;6681;53.254;10.398;2023-11-18T01:35:28;4.80;95.10
13231;DHT22;6681;53.254;10.398;2023-11-18T01:37:54;4.80;95.60
13231;DHT22;6681;53.254;10.398;2023-11-18T01:40:20;4.70;96.50
13231;DHT22;6681;53.254;10.398;2023-11-18T01:42:46;4.70;98.40
13231;DHT22;6681;53.254;10.398;2023-11-18T01:45:15;4.70;99.70
13231;DHT22;6681;53.254;10.398;2023-11-18T01:47:42;4.70;98.90
13231;DHT22;6681;53.254;10.398;2023-11-18T01:50:10;4.70;99.90
13231;DHT22;6681;53.254;10.398;2023-11-18T01:52:37;4.70;99.90
13231;DHT22;6681;53.254;10.398;2023-11-18T01:55:04;4.70;99.90
13231;DHT22;6681;53.254;10.398;2023-11-18T01:57:33;4.70;99.90
13231;DHT22;6681;53.254;10.398;2023-11-18T01:59:59;4.90;99.90
13231;DHT22;6681;53.254;10.398;2023-11-18T02:02:28;4.70;99.90
13231;DHT22;6681;53.254;10.398;2023-11-18T02:04:53;4.70;99.90
13231;DHT22;6681;53.254;10.398;2023-11-18T02:07:20;4.70;99.90
13231;DHT22;6681;53.254;10.398;2023-11-18T02:09:47;4.60;99.90
13231;DHT22;6681;53.254;10.398;2023-11-18T02:15:06;4.70;99.60
13231;DHT22;6681;53.254;10.398;2023-11-18T02:17:37;4.70;99.90
13231;DHT22;6681;53.254;10.398;2023-11-18T02:20:15;5.00;99.90
13231;DHT22;6681;53.254;10.398;2023-11-18T02:22:45;4.90;99.90
13231;DHT22;6681;53.254;10.398;2023-11-18T02:25:16;4.70;99.90
13231;DHT22;6681;53.254;10.398;2023-11-18T02:27:42;4.70;99.90
13231;DHT22;6681;53.254;10.398;2023-11-18T02:30:09;4.70;99.90
13231;DHT22;6681;53.254;10.398;2023-11-18T02:33:12;4.70;99.90
13231;DHT22;6681;53.254;10.398;2023-11-18T02:35:54;4.80;99.50
13231;DHT22;6681;53.254;10.398;2023-11-18T02:38:30;4.80;99.60
13231;DHT22;6681;53.254;10.398;2023-11-18T02:40:59;3.20;99.90
13231;DHT22;6681;53.254;10.398;2023-11-18T02:43:27;4.70;99.90
13231;DHT22;6681;53.254;10.398;2023-11-18T02:45:54;4.70;99.90
13231;DHT22;6681;53.254;10.398;2023-11-18T02:48:22;4.70;99.90
13231;DHT22;6681;53.254;10.398;2023-11-18T02:50:49;4.70;99.90
13231;DHT22;6681;53.254;10.398;2023-11-18T02:53:14;4.70;99.90
13231;DHT22;6681;53.254;10.398;2023-11-18T02:55:40;7.20;99.90
13231;DHT22;6681;53.254;10.398;2023-11-18T02:58:06;4.70;99.90
13231;DHT22;6681;53.254;10.398;2023-11-18T03:00:33;4.70;99.90
13231;DHT22;6681;53.254;10.398;2023-11-18T03:02:59;6.80;99.90
13231;DHT22;6681;53.254;10.398;2023-11-18T03:05:24;4.70;99.90
13231;DHT22;6681;53.254;10.398;2023-11-18T03:07:51;4.70;99.90
13231;DHT22;6681;53.254;10.398;2023-11-18T03:10:22;4.70;99.90
13231;DHT22;6681;53.254;10.398;2023-11-18T03:12:52;4.70;99.90
13231;DHT22;6681;53.254;10.398;2023-11-18T03:15:18;4.70;99.90
13231;DHT22;6681;53.254;10.398;2023-11-18T03:17:48;4.70;99.90
13231;DHT22;6681;53.254;10.398;2023-11-18T03:20:16;4.70;99.90
13231;DHT22;6681;53.254;10.398;2023-11-18T03:22:46;4.70;99.90
13231;DHT22;6681;53.254;10.398;2023-11-18T03:25:12;4.60;99.90
13231;DHT22;6681;53.254;10.398;2023-11-18T03:27:39;4.70;99.90
13231;DHT22;6681;53.254;10.398;2023-11-18T03:30:05;4.60;99.90
13231;DHT22;6681;53.254;10.398;2023-11-18T03:32:38;4.70;99.90
13231;DHT22;6681;53.254;10.398;2023-11-18T03:35:06;4.70;99.90
13231;DHT22;6681;53.254;10.398;2023-11-18T03:37:35;4.70;99.90
13231;DHT22;6681;53.254;10.398;2023-11-18T03:40:08;4.70;99.90
13231;DHT22;6681;53.254;10.398;2023-11-18T03:42:38;4.70;99.90
13231;DHT22;6681;53.254;10.398;2023-11-18T03:45:05;4.80;99.90
13231;DHT22;6681;53.254;10.398;2023-11-18T03:47:31;4.70;99.90
13231;DHT22;6681;53.254;10.398;2023-11-18T03:49:57;5.10;99.90
13231;DHT22;6681;53.254;10.398;2023-11-18T03:52:24;4.70;99.90
13231;DHT22;6681;53.254;10.398;2023-11-18T03:54:49;4.70;99.90
13231;DHT22;6681;53.254;10.398;2023-11-18T03:57:15;4.70;99.90
13231;DHT22;6681;53.254;10.398;2023-11-18T03:59:41;4.70;99.90
13231;DHT22;6681;53.254;10.398;2023-11-18T04:02:07;4.70;99.90
13231;DHT22;6681;53.254;10.398;2023-11-18T04:04:33;4.70;99.90
13231;DHT22;6681;53.254;10.398;2023-11-18T04:06:59;4.70;99.90
13231;DHT22;6681;53.254;10.398;2023-11-18T04:09:27;4.70;99.90
13231;DHT22;6681;53.254;10.398;2023-11-18T04:11:52;4.80;99.90
13231;DHT22;6681;53.254;10.398;2023-11-18T04:14:18;4.60;99.90
13231;DHT22;6681;53.254;10.398;2023-11-18T04:16:48;4.70;99.90
13231;DHT22;6681;53.254;10.398;2023-11-18T04:19:14;4.60;99.90
13231;DHT22;6681;53.254;10.398;2023-11-18T04:21:40;4.70;99.90
13231;DHT22;6681;53.254;10.398;2023-11-18T04:24:06;4.60;99.90
13231;DHT22;6681;53.254;10.398;2023-11-18T04:26:32;4.60;99.90
13231;DHT22;6681;53.254;10.398;2023-11-18T04:28:58;4.70;99.90
13231;DHT22;6681;53.254;10.398;2023-11-18T04:31:24;4.70;99.90
13231;DHT22;6681;53.254;10.398;2023-11-18T04:33:50;4.60;99.90
13231;DHT22;6681;53.254;10.398;2023-11-18T04:36:16;4.60;99.90
13231;DHT22;6681;53.254;10.398;2023-11-18T04:38:42;4.60;99.90
13231;DHT22;6681;53.254;10.398;2023-11-18T04:41:09;4.60;99.90
13231;DHT22;6681;53.254;10.398;2023-11-18T04:43:35;4.50;99.90
13231;DHT22;6681;53.254;10.398;2023-11-18T04:46:00;4.40;99.90
13231;DHT22;6681;53.254;10.398;2023-11-18T04:48:26;5.10;99.90
13231;DHT22;6681;53.254;10.398;2023-11-18T04:50:51;4.40;99.50
13231;DHT22;6681;53.254;10.398;2023-11-18T04:53:17;4.70;99.90
13231;DHT22;6681;53.254;10.398;2023-11-18T04:55:43;4.30;99.90
13231;DHT22;6681;53.254;10.398;2023-11-18T04:58:09;4.40;99.90
13231;DHT22;6681;53.254;10.398;2023-11-18T05:00:38;4.30;99.90
13231;DHT22;6681;53.254;10.398;2023-11-18T05:03:05;4.40;99.90
13231;DHT22;6681;53.254;10.398;2023-11-18T05:05:37;4.30;99.70
13231;DHT22;6681;53.254;10.398;2023-11-18T05:08:07;4.30;98.00
13231;DHT22;6681;53.254;10.398;2023-11-18T05:10:34;4.20;97.40
13231;DHT22;6681;53.254;10.398;2023-11-18T05:13:00;4.20;98.40
13231;DHT22;6681;53.254;10.398;2023-11-18T05:15:26;4.10;99.90
13231;DHT22;6681;53.254;10.398;2023-11-18T05:17:52;4.20;99.90
13231;DHT22;6681;53.254;10.398;2023-11-18T05:20:19;4.10;99.90
13231;DHT22;6681;53.254;10.398;2023-11-18T05:22:44;4.10;99.90
13231;DHT22;6681;53.254;10.398;2023-11-18T05:25:10;4.10;98.20
13231;DHT22;6681;53.254;10.398;2023-11-18T05:27:36;4.20;95.50
13231;DHT22;6681;53.254;10.398;2023-11-18T05:30:02;4.20;91.90
13231;DHT22;6681;53.254;10.398;2023-11-18T05:32:28;4.20;91.90
13231;DHT22;6681;53.254;10.398;2023-11-18T05:34:55;4.20;92.20
13231;DHT22;6681;53.254;10.398;2023-11-18T05:37:26;4.20;92.50
13231;DHT22;6681;53.254;10.398;2023-11-18T05:39:53;4.10;87.10
13231;DHT22;6681;53.254;10.398;2023-11-18T05:42:25;4.10;89.80
13231;DHT22;6681;53.254;10.398;2023-11-18T05:44:51;4.00;91.80
13231;DHT22;6681;53.254;10.398;2023-11-18T05:47:25;4.00;93.30
13231;DHT22;6681;53.254;10.398;2023-11-18T05:49:54;4.00;94.90
13231;DHT22;6681;53.254;10.398;2023-11-18T05:52:20;4.00;95.90
13231;DHT22;6681;53.254;10.398;2023-11-18T05:54:46;4.20;96.60
13231;DHT22;6681;53.254;10.398;2023-11-18T05:57:14;3.90;97.20
13231;DHT22;6681;53.254;10.398;2023-11-18T05:59:40;3.90;97.30
13231;DHT22;6681;53.254;10.398;2023-11-18T06:02:06;4.00;97.70
13231;DHT22;6681;53.254;10.398;2023-11-18T06:04:31;4.00;97.90
13231;DHT22;6681;53.254;10.398;2023-11-18T06:06:57;4.00;98.20
13231;DHT22;6681;53.254;10.398;2023-11-18T06:09:23;4.10;97.90
13231;DHT22;6681;53.254;10.398;2023-11-18T06:11:51;3.80;92.10
13231;DHT22;6681;53.254;10.398;2023-11-18T06:14:19;3.80;94.70
13231;DHT22;6681;53.254;10.398;2023-11-18T06:16:44;3.70;94.50
13231;DHT22;6681;53.254;10.398;2023-11-18T06:19:10;3.70;95.80
13231;DHT22;6681;53.254;10.398;2023-11-18T06:21:36;3.80;97.20
13231;DHT22;6681;53.254;10.398;2023-11-18T06:24:02;3.70;97.40
13231;DHT22;6681;53.254;10.398;2023-11-18T06:26:31;3.70;97.20
13231;DHT22;6681;53.254;10.398;2023-11-18T06:28:57;3.70;97.00
13231;DHT22;6681;53.254;10.398;2023-11-18T06:31:24;3.80;97.60
13231;DHT22;6681;53.254;10.398;2023-11-18T06:33:50;3.70;97.60
13231;DHT22;6681;53.254;10.398;2023-11-18T06:36:16;3.70;97.20
13231;DHT22;6681;53.254;10.398;2023-11-18T06:38:43;3.70;97.70
13231;DHT22;6681;53.254;10.398;2023-11-18T06:41:12;3.70;95.60
13231;DHT22;6681;53.254;10.398;2023-11-18T06:43:39;3.70;95.30
13231;DHT22;6681;53.254;10.398;2023-11-18T06:46:23;3.70;96.10
13231;DHT22;6681;53.254;10.398;2023-11-18T06:48:52;3.70;91.30
13231;DHT22;6681;53.254;10.398;2023-11-18T06:51:23;3.60;90.20
13231;DHT22;6681;53.254;10.398;2023-11-18T06:53:55;3.60;92.10
13231;DHT22;6681;53.254;10.398;2023-11-18T06:56:21;3.60;90.70
13231;DHT22;6681;53.254;10.398;2023-11-18T06:58:47;3.60;90.30
13231;DHT22;6681;53.254;10.398;2023-11-18T07:01:13;3.60;91.10
13231;DHT22;6681;53.254;10.398;2023-11-18T07:03:44;3.70;92.30
13231;DHT22;6681;53.254;10.398;2023-11-18T07:06:10;3.80;92.00
13231;DHT22;6681;53.254;10.398;2023-11-18T07:08:36;3.50;92.10
13231;DHT22;6681;53.254;10.398;2023-11-18T07:11:03;3.50;92.30
13231;DHT22;6681;53.254;10.398;2023-11-18T07:13:29;3.40;93.10
13231;DHT22;6681;53.254;10.398;2023-11-18T07:15:54;3.50;93.50
13231;DHT22;6681;53.254;10.398;2023-11-18T07:18:23;3.90;93.80
13231;DHT22;6681;53.254;10.398;2023-11-18T07:20:49;5.00;93.30
13231;DHT22;6681;53.254;10.398;2023-11-18T07:23:18;3.40;91.60
13231;DHT22;6681;53.254;10.398;2023-11-18T07:25:44;3.30;90.90
13231;DHT22;6681;53.254;10.398;2023-11-18T07:28:13;5.50;93.50
13231;DHT22;6681;53.254;10.398;2023-11-18T07:30:43;3.20;93.00
13231;DHT22;6681;53.254;10.398;2023-11-18T07:33:14;3.20;91.60
13231;DHT22;6681;53.254;10.398;2023-11-18T07:35:40;3.20;88.60
13231;DHT22;6681;53.254;10.398;2023-11-18T07:38:05;3.10;89.20
13231;DHT22;6681;53.254;10.398;2023-11-18T07:40:33;3.00;90.00
13231;DHT22;6681;53.254;10.398;2023-11-18T07:43:02;3.00;91.90
13231;DHT22;6681;53.254;10.398;2023-11-18T07:45:28;2.90;93.20
13231;DHT22;6681;53.254;10.398;2023-11-18T07:47:54;2.90;92.70
13231;DHT22;6681;53.254;10.398;2023-11-18T07:50:21;2.90;94.00
13231;DHT22;6681;53.254;10.398;2023-11-18T07:52:49;2.90;96.10
13231;DHT22;6681;53.254;10.398;2023-11-18T07:55:16;2.80;95.10
13231;DHT22;6681;53.254;10.398;2023-11-18T07:57:42;2.80;96.60
13231;DHT22;6681;53.254;10.398;2023-11-18T08:00:08;2.80;98.20
13231;DHT22;6681;53.254;10.398;2023-11-18T08:02:37;2.90;98.50
13231;DHT22;6681;53.254;10.398;2023-11-18T08:05:06;2.80;99.60
13231;DHT22;6681;53.254;10.398;2023-11-18T08:07:39;2.80;99.90
13231;DHT22;6681;53.254;10.398;2023-11-18T08:10:06;2.80;99.90
13231;DHT22;6681;53.254;10.398;2023-11-18T08:12:32;2.80;99.90
13231;DHT22;6681;53.254;10.398;2023-11-18T08:14:59;2.80;99.90
13231;DHT22;6681;53.254;10.398;2023-11-18T08:17:25;2.90;99.90
13231;DHT22;6681;53.254;10.398;2023-11-18T08:19:51;2.90;99.90
13231;DHT22;6681;53.254;10.398;2023-11-18T08:22:18;2.90;99.90
13231;DHT22;6681;53.254;10.398;2023-11-18T08:24:46;2.90;99.90
13231;DHT22;6681;53.254;10.398;2023-11-18T08:27:11;2.90;99.90
13231;DHT22;6681;53.254;10.398;2023-11-18T08:29:37;3.00;99.90
13231;DHT22;6681;53.254;10.398;2023-11-18T08:32:05;3.00;99.90
13231;DHT22;6681;53.254;10.398;2023-11-18T08:34:31;3.00;99.90
13231;DHT22;6681;53.254;10.398;2023-11-18T08:36:59;3.10;99.90
13231;DHT22;6681;53.254;10.398;2023-11-18T08:39:25;3.00;99.90
13231;DHT22;6681;53.254;10.398;2023-11-18T08:41:51;3.50;99.90
13231;DHT22;6681;53.254;10.398;2023-11-18T08:44:17;3.10;99.90
13231;DHT22;6681;53.254;10.398;2023-11-18T08:46:43;3.20;99.90
13231;DHT22;6681;53.254;10.398;2023-11-18T08:49:09;3.20;99.90
13231;DHT22;6681;53.254;10.398;2023-11-18T08:51:40;3.30;99.90
13231;DHT22;6681;53.254;10.398;2023-11-18T08:54:08;3.90;99.90
13231;DHT22;6681;53.254;10.398;2023-11-18T08:56:51;3.30;99.90
13231;DHT22;6681;53.254;10.398;2023-11-18T08:59:21;3.20;99.90
13231;DHT22;6681;53.254;10.398;2023-11-18T09:01:54;3.10;99.90
13231;DHT22;6681;53.254;10.398;2023-11-18T09:04:27;3.20;99.90
13231;DHT22;6681;53.254;10.398;2023-11-18T09:06:53;3.10;99.90
13231;DHT22;6681;53.254;10.398;2023-11-18T09:09:23;3.10;99.90
13231;DHT22;6681;53.254;10.398;2023-11-18T09:11:56;3.10;99.90
13231;DHT22;6681;53.254;10.398;2023-11-18T09:14:26;3.20;99.90
13231;DHT22;6681;53.254;10.398;2023-11-18T09:16:53;3.20;99.90
13231;DHT22;6681;53.254;10.398;2023-11-18T09:19:21;3.30;99.90
13231;DHT22;6681;53.254;10.398;2023-11-18T09:21:47;3.40;99.90
13231;DHT22;6681;53.254;10.398;2023-11-18T09:24:14;3.40;99.90
13231;DHT22;6681;53.254;10.398;2023-11-18T09:26:41;3.50;99.90
13231;DHT22;6681;53.254;10.398;2023-11-18T09:29:09;3.60;99.90
13231;DHT22;6681;53.254;10.398;2023-11-18T09:31:36;3.70;99.90
13231;DHT22;6681;53.254;10.398;2023-11-18T09:34:03;3.70;99.90
13231;DHT22;6681;53.254;10.398;2023-11-18T09:36:32;3.70;99.90
13231;DHT22;6681;53.254;10.398;2023-11-18T09:38:59;3.70;99.90
13231;DHT22;6681;53.254;10.398;2023-11-18T09:41:25;5.40;99.90
13231;DHT22;6681;53.254;10.398;2023-11-18T09:43:52;3.80;99.90
13231;DHT22;6681;53.254;10.398;2023-11-18T09:46:24;3.90;99.90
13231;DHT22;6681;53.254;10.398;2023-11-18T09:48:51;5.20;99.90
13231;DHT22;6681;53.254;10.398;2023-11-18T09:51:28;4.00;99.90
13231;DHT22;6681;53.254;10.398;2023-11-18T09:53:59;4.10;99.90
13231;DHT22;6681;53.254;10.398;2023-11-18T09:56:51;4.20;99.90
13231;DHT22;6681;53.254;10.398;2023-11-18T09:59:32;4.30;99.90
13231;DHT22;6681;53.254;10.398;2023-11-18T10:02:02;4.30;99.90
13231;DHT22;6681;53.254;10.398;2023-11-18T10:04:30;4.40;99.90
13231;DHT22;6681;53.254;10.398;2023-11-18T10:06:57;4.40;99.90
13231;DHT22;6681;53.254;10.398;2023-11-18T10:09:26;4.50;99.90
13231;DHT22;6681;53.254;10.398;2023-11-18T10:12:04;4.60;99.90
13231;DHT22;6681;53.254;10.398;2023-11-18T10:14:36;4.70;98.60
13231;DHT22;6681;53.254;10.398;2023-11-18T10:17:05;4.80;98.50
13231;DHT22;6681;53.254;10.398;2023-11-18T10:19:56;4.80;99.90
13231;DHT22;6681;53.254;10.398;2023-11-18T10:22:33;4.90;98.60
13231;DHT22;6681;53.254;10.398;2023-11-18T10:25:01;5.00;91.00
13231;DHT22;6681;53.254;10.398;2023-11-18T10:27:27;5.10;77.30
13231;DHT22;6681;53.254;10.398;2023-11-18T10:29:57;5.20;77.50
13231;DHT22;6681;53.254;10.398;2023-11-18T10:32:23;5.20;81.40
13231;DHT22;6681;53.254;10.398;2023-11-18T10:34:55;5.20;86.90
13231;DHT22;6681;53.254;10.398;2023-11-18T10:37:21;5.30;85.30
13231;DHT22;6681;53.254;10.398;2023-11-18T10:39:48;5.40;86.10
13231;DHT22;6681;53.254;10.398;2023-11-18T10:42:19;5.50;75.90
13231;DHT22;6681;53.254;10.398;2023-11-18T10:45:11;5.60;61.90
13231;DHT22;6681;53.254;10.398;2023-11-18T10:47:42;5.60;53.80
13231;DHT22;6681;53.254;10.398;2023-11-18T10:50:08;6.00;58.40
13231;DHT22;6681;53.254;10.398;2023-11-18T10:52:38;6.10;57.20
13231;DHT22;6681;53.254;10.398;2023-11-18T10:55:06;5.80;50.20
13231;DHT22;6681;53.254;10.398;2023-11-18T10:57:38;5.80;48.90
13231;DHT22;6681;53.254;10.398;2023-11-18T11:00:05;5.90;58.00
13231;DHT22;6681;53.254;10.398;2023-11-18T11:02:40;5.90;54.10
13231;DHT22;6681;53.254;10.398;2023-11-18T11:05:13;6.20;39.20
13231;DHT22;6681;53.254;10.398;2023-11-18T11:07:53;6.00;49.20
13231;DHT22;6681;53.254;10.398;2023-11-18T11:10:19;6.00;27.60
13231;DHT22;6681;53.254;10.398;2023-11-18T11:12:54;6.30;29.60
13231;DHT22;6681;53.254;10.398;2023-11-18T11:15:29;6.00;38.40
13231;DHT22;6681;53.254;10.398;2023-11-18T11:18:03;6.00;31.20
13231;DHT22;6681;53.254;10.398;2023-11-18T11:20:51;6.00;34.60
13231;DHT22;6681;53.254;10.398;2023-11-18T11:23:30;6.10;36.00
13231;DHT22;6681;53.254;10.398;2023-11-18T11:31:38;6.10;28.40
13231;DHT22;6681;53.254;10.398;2023-11-18T11:34:17;6.10;23.70
13231;DHT22;6681;53.254;10.398;2023-11-18T11:36:49;6.10;31.40
13231;DHT22;6681;53.254;10.398;2023-11-18T11:39:16;6.20;26.10
13231;DHT22;6681;53.254;10.398;2023-11-18T11:41:55;6.60;27.40
13231;DHT22;6681;53.254;10.398;2023-11-18T11:44:22;6.30;22.50
13231;DHT22;6681;53.254;10.398;2023-11-18T11:46:54;6.40;20.90
13231;DHT22;6681;53.254;10.398;2023-11-18T11:49:23;6.30;23.30
13231;DHT22;6681;53.254;10.398;2023-11-18T11:52:18;6.40;19.00
13231;DHT22;6681;53.254;10.398;2023-11-18T11:54:55;6.30;17.90
13231;DHT22;6681;53.254;10.398;2023-11-18T11:57:24;6.40;17.70
13231;DHT22;6681;53.254;10.398;2023-11-18T12:02:21;6.40;22.50
13231;DHT22;6681;53.254;10.398;2023-11-18T12:04:53;6.40;21.20
13231;DHT22;6681;53.254;10.398;2023-11-18T12:07:21;6.40;15.00
13231;DHT22;6681;53.254;10.398;2023-11-18T12:09:50;6.40;20.80
13231;DHT22;6681;53.254;10.398;2023-11-18T12:12:21;6.40;22.40
13231;DHT22;6681;53.254;10.398;2023-11-18T12:14:56;6.40;27.00
13231;DHT22;6681;53.254;10.398;2023-11-18T12:17:23;6.40;24.00
13231;DHT22;6681;53.254;10.398;2023-11-18T12:19:54;6.40;23.60
13231;DHT22;6681;53.254;10.398;2023-11-18T12:22:25;6.40;24.00
13231;DHT22;6681;53.254;10.398;2023-11-18T12:33:00;6.20;29.50
13231;DHT22;6681;53.254;10.398;2023-11-18T12:46:57;6.10;37.10
13231;DHT22;6681;53.254;10.398;2023-11-18T12:49:37;6.00;40.30
13231;DHT22;6681;53.254;10.398;2023-11-18T12:52:07;6.00;37.60
13231;DHT22;6681;53.254;10.398;2023-11-18T12:54:34;6.00;40.20
13231;DHT22;6681;53.254;10.398;2023-11-18T12:57:03;6.00;40.30
13231;DHT22;6681;53.254;10.398;2023-11-18T12:59:34;6.00;44.30
13231;DHT22;6681;53.254;10.398;2023-11-18T13:02:01;6.00;41.40
13231;DHT22;6681;53.254;10.398;2023-11-18T13:04:30;6.20;40.30
13231;DHT22;6681;53.254;10.398;2023-11-18T13:06:57;6.00;40.90
13231;DHT22;6681;53.254;10.398;2023-11-18T13:09:23;6.00;44.50
13231;DHT22;6681;53.254;10.398;2023-11-18T13:12:01;6.60;40.70
13231;DHT22;6681;53.254;10.398;2023-11-18T13:14:31;6.00;42.60
13231;DHT22;6681;53.254;10.398;2023-11-18T13:17:02;6.00;38.50
13231;DHT22;6681;53.254;10.398;2023-11-18T13:19:31;6.00;39.00
13231;DHT22;6681;53.254;10.398;2023-11-18T13:22:07;5.90;41.50
13231;DHT22;6681;53.254;10.398;2023-11-18T13:24:41;5.90;43.50
13231;DHT22;6681;53.254;10.398;2023-11-18T13:27:09;5.90;46.40
13231;DHT22;6681;53.254;10.398;2023-11-18T13:29:36;5.90;45.90
13231;DHT22;6681;53.254;10.398;2023-11-18T13:32:05;5.90;41.00
13231;DHT22;6681;53.254;10.398;2023-11-18T13:34:35;5.90;45.70
13231;DHT22;6681;53.254;10.398;2023-11-18T13:37:06;5.90;42.90
13231;DHT22;6681;53.254;10.398;2023-11-18T13:39:33;5.90;45.10
13231;DHT22;6681;53.254;10.398;2023-11-18T13:42:21;5.90;45.20
13231;DHT22;6681;53.254;10.398;2023-11-18T13:44:48;5.80;43.00
13231;DHT22;6681;53.254;10.398;2023-11-18T13:47:17;5.90;44.30
13231;DHT22;6681;53.254;10.398;2023-11-18T13:49:42;5.90;44.70
13231;DHT22;6681;53.254;10.398;2023-11-18T13:52:09;5.90;45.90
13231;DHT22;6681;53.254;10.398;2023-11-18T13:54:37;5.90;45.50
13231;DHT22;6681;53.254;10.398;2023-11-18T13:57:04;5.90;42.50
13231;DHT22;6681;53.254;10.398;2023-11-18T13:59:31;5.80;43.60
13231;DHT22;6681;53.254;10.398;2023-11-18T14:01:58;5.80;43.90
13231;DHT22;6681;53.254;10.398;2023-11-18T14:04:28;6.60;46.30
13231;DHT22;6681;53.254;10.398;2023-11-18T14:06:58;5.80;43.10
13231;DHT22;6681;53.254;10.398;2023-11-18T14:09:31;5.90;46.30
13231;DHT22;6681;53.254;10.398;2023-11-18T14:12:01;5.70;46.70
13231;DHT22;6681;53.254;10.398;2023-11-18T14:14:27;5.80;48.50
13231;DHT22;6681;53.254;10.398;2023-11-18T14:16:53;5.80;47.80
13231;DHT22;6681;53.254;10.398;2023-11-18T14:19:23;6.30;51.90
13231;DHT22;6681;53.254;10.398;2023-11-18T14:21:53;5.70;49.60
13231;DHT22;6681;53.254;10.398;2023-11-18T14:24:19;5.90;52.90
13231;DHT22;6681;53.254;10.398;2023-11-18T14:26:45;5.60;51.20
13231;DHT22;6681;53.254;10.398;2023-11-18T14:29:11;5.60;54.00
13231;DHT22;6681;53.254;10.398;2023-11-18T14:31:39;5.60;50.40
13231;DHT22;6681;53.254;10.398;2023-11-18T14:34:05;5.60;51.10
13231;DHT22;6681;53.254;10.398;2023-11-18T14:36:31;5.60;52.60
13231;DHT22;6681;53.254;10.398;2023-11-18T14:38:56;5.60;52.20
13231;DHT22;6681;53.254;10.398;2023-11-18T14:41:24;5.60;50.60
13231;DHT22;6681;53.254;10.398;2023-11-18T14:43:54;5.50;53.10
13231;DHT22;6681;53.254;10.398;2023-11-18T14:46:20;5.50;54.20
13231;DHT22;6681;53.254;10.398;2023-11-18T14:48:47;5.50;54.90
13231;DHT22;6681;53.254;10.398;2023-11-18T14:51:13;5.50;55.90
13231;DHT22;6681;53.254;10.398;2023-11-18T14:53:39;5.50;55.80
13231;DHT22;6681;53.254;10.398;2023-11-18T14:56:09;5.40;56.80
13231;DHT22;6681;53.254;10.398;2023-11-18T14:58:36;5.40;56.70
13231;DHT22;6681;53.254;10.398;2023-11-18T15:01:02;5.40;57.80
13231;DHT22;6681;53.254;10.398;2023-11-18T15:03:29;5.40;59.00
13231;DHT22;6681;53.254;10.398;2023-11-18T15:06:02;5.40;56.10
13231;DHT22;6681;53.254;10.398;2023-11-18T15:08:32;5.40;59.50
13231;DHT22;6681;53.254;10.398;2023-11-18T15:10:58;5.40;59.90
13231;DHT22;6681;53.254;10.398;2023-11-18T15:13:24;5.30;62.30
13231;DHT22;6681;53.254;10.398;2023-11-18T15:15:50;5.30;58.70
13231;DHT22;6681;53.254;10.398;2023-11-18T15:18:16;5.70;60.50
13231;DHT22;6681;53.254;10.398;2023-11-18T15:20:48;5.30;61.70
13231;DHT22;6681;53.254;10.398;2023-11-18T15:23:15;5.30;62.10
13231;DHT22;6681;53.254;10.398;2023-11-18T15:25:44;5.30;63.40
13231;DHT22;6681;53.254;10.398;2023-11-18T15:28:10;5.30;60.50
13231;DHT22;6681;53.254;10.398;2023-11-18T15:30:36;5.30;64.30
13231;DHT22;6681;53.254;10.398;2023-11-18T15:33:02;5.60;62.60
13231;DHT22;6681;53.254;10.398;2023-11-18T15:35:28;5.30;61.10
13231;DHT22;6681;53.254;10.398;2023-11-18T15:37:54;5.30;60.80
13231;DHT22;6681;53.254;10.398;2023-11-18T15:40:20;5.30;62.10
13231;DHT22;6681;53.254;10.398;2023-11-18T15:42:51;5.20;62.20
13231;DHT22;6681;53.254;10.398;2023-11-18T15:45:20;5.20;63.20
13231;DHT22;6681;53.254;10.398;2023-11-18T15:47:53;5.30;63.60
13231;DHT22;6681;53.254;10.398;2023-11-18T15:50:19;5.30;62.80
13231;DHT22;6681;53.254;10.398;2023-11-18T15:52:49;5.30;60.90
13231;DHT22;6681;53.254;10.398;2023-11-18T15:55:17;5.30;62.90
13231;DHT22;6681;53.254;10.398;2023-11-18T15:57:54;5.50;61.70
13231;DHT22;6681;53.254;10.398;2023-11-18T16:00:26;5.30;63.90
13231;DHT22;6681;53.254;10.398;2023-11-18T16:02:56;5.30;63.00
13231;DHT22;6681;53.254;10.398;2023-11-18T16:05:24;5.30;65.60
13231;DHT22;6681;53.254;10.398;2023-11-18T16:07:51;5.40;64.20
13231;DHT22;6681;53.254;10.398;2023-11-18T16:10:20;5.30;65.90
13231;DHT22;6681;53.254;10.398;2023-11-18T16:12:54;5.30;66.00
13231;DHT22;6681;53.254;10.398;2023-11-18T16:15:21;5.70;67.70
13231;DHT22;6681;53.254;10.398;2023-11-18T16:17:54;5.30;64.80
13231;DHT22;6681;53.254;10.398;2023-11-18T16:20:21;5.30;65.30
13231;DHT22;6681;53.254;10.398;2023-11-18T16:22:48;5.30;68.30